Terminal Aerodrome Forecast
Issued by NWS Louisville, KY

Home | Current Version | Previous Version | Text Only | Print | Product List | Glossary On
Versions: 1 2 3 4 5 6 7 8 9 10 11 12 13 14 15 16
000
FTUS43 KLMK 282327
TAFLEX
TAF
KLEX 282327Z 2900/2924 16006KT P6SM FEW060 SCT250
     FM290200 12004KT P6SM SCT250
     FM291000 VRB04KT 6SM BR SCT250
     FM291400 20011KT P6SM SCT040 SCT250=

USA.gov is the U.S. government's official web portal to all federal, state and local government web resources and services.